KHEF

Manassas Regional / Harry P Davis Field Airport

Washington, Virginia, USA
METAR KHEF 191856Z 34012KT 10SM SCT042 30/21 A2995 RMK AO2 SLP148 T03000211 PNO $
Observed Flight Rules
Sep-19 @ 18:56 UTC (22 minutes ago) Visual Flight Rules
Wind Visibility Clouds
340° at 12 knots 10 miles
  • Scattered at 4,200' AGL
Temperatures Readings
Current 30°C / 86°F
Dewpoint 21°C / 70°F
Humidity 59%
Altimeter 29.95" Hg
Pressure 1014.8 hPa
Elevation 59
METAR KHEF 191856Z 34012KT 10SM SCT042 30/21 A2995 RMK AO2 SLP148 T03000211 PNO $
Observed Flight Rules
Sep-19 @ 18:56 UTC
(22 minutes ago)
VFR
Wind Visibility
340° at 12 knots 10 miles
Clouds
  • Scattered at 4,200' AGL
Temperature Dewpoint
30°C / 86°F 21°C / 70°F
Humidity Altimeter Pressure
59% 29.95" Hg 1014.8 hPa